Time;durP1;ratioP1;P1;durP2;ratioP2;P2;SDS_P1;SDS_P2;PMS_P1;PMS_P2;Temp;Humidity;BMP_temperature;BMP_pressure;BME280_temperature;BME280_humidity;BME280_pressure;Samples;Min_cycle;Max_cycle;Signal;HPM_P1;HPM_P2
2021/05/07 14:19:29;;;;;;;4.63;1.35;;;;;;;28.77;21.19;93206.63;5759559;22;9714787;-81
2021/05/07 14:21:55;;;;;;;3.25;1.05;;;;;;;28.92;21.50;93201.69;6063252;23;20333;-80
2021/05/07 14:24:20;;;;;;;5.50;1.88;;;;;;;28.92;21.27;93204.41;6102509;23;20543;-80
2021/05/07 14:26:46;;;;;;;2.33;1.20;;;;;;;28.60;21.39;93194.88;6124344;23;20810;-80
2021/05/07 14:29:12;;;;;;;3.40;0.95;;;;;;;28.60;21.03;93159.53;6108208;23;20020;-81
2021/05/07 14:31:40;;;;;;;3.03;1.20;;;;;;;28.47;19.90;93169.50;6121204;23;20428;-84
2021/05/07 14:34:08;;;;;;;3.35;1.13;;;;;;;28.34;20.13;93187.59;6114720;23;20065;-89
2021/05/07 14:36:33;;;;;;;5.82;1.17;;;;;;;28.48;18.67;93179.19;6118002;23;20018;-88
2021/05/07 14:38:59;;;;;;;7.22;1.25;;;;;;;28.28;19.88;93170.22;6124587;23;20087;-84
2021/05/07 14:41:24;;;;;;;3.70;1.10;;;;;;;28.40;21.30;93161.47;6119004;23;20094;-85
2021/05/07 14:43:49;;;;;;;3.97;1.00;;;;;;;28.53;21.65;93156.19;6131339;23;20002;-84
2021/05/07 14:46:15;;;;;;;4.05;1.38;;;;;;;28.35;21.78;93183.69;6120372;23;20463;-85
2021/05/07 14:48:41;;;;;;;6.85;1.60;;;;;;;28.10;22.32;93189.50;6118119;23;20025;-83
2021/05/07 14:51:06;;;;;;;3.70;1.55;;;;;;;27.70;23.73;93166.91;6124029;23;20238;-80
2021/05/07 14:53:32;;;;;;;8.15;1.70;;;;;;;27.98;22.98;93177.31;6124718;23;20425;-84
2021/05/07 14:55:58;;;;;;;5.22;1.20;;;;;;;28.27;22.92;93179.56;6128088;23;20056;-83
2021/05/07 14:58:23;;;;;;;3.25;1.30;;;;;;;28.38;23.26;93169.28;6119826;23;20394;-81
2021/05/07 15:00:48;;;;;;;7.05;2.47;;;;;;;28.31;23.81;93166.69;6105098;23;20017;-83
2021/05/07 15:03:14;;;;;;;4.75;1.23;;;;;;;28.38;23.89;93182.88;6123304;23;20022;-86
2021/05/07 15:05:42;;;;;;;3.38;1.40;;;;;;;27.95;23.86;93142.81;6119546;23;20356;-84
2021/05/07 15:08:08;;;;;;;2.58;1.20;;;;;;;27.89;23.60;93154.56;6118681;23;20336;-81
2021/05/07 15:10:34;;;;;;;3.70;1.17;;;;;;;27.77;24.10;93147.75;6129147;23;20033;-82
2021/05/07 15:13:00;;;;;;;4.47;1.80;;;;;;;27.86;24.44;93155.38;6112094;23;20444;-83
2021/05/07 15:15:25;;;;;;;3.40;1.23;;;;;;;27.85;24.60;93157.34;6114874;23;20022;-83
2021/05/07 15:17:51;;;;;;;3.35;0.98;;;;;;;27.25;22.17;93160.16;6111079;23;20402;-84
2021/05/07 15:20:18;;;;;;;6.40;1.88;;;;;;;27.15;23.51;93132.78;6118771;23;20030;-85
2021/05/07 15:22:44;;;;;;;4.13;1.40;;;;;;;27.25;24.04;93146.59;6106643;23;20023;-83
2021/05/07 15:25:10;;;;;;;4.53;1.17;;;;;;;27.42;23.76;93146.34;6110477;23;20014;-88
2021/05/07 15:27:35;;;;;;;4.78;1.42;;;;;;;27.37;22.95;93127.03;6111042;23;20018;-85
2021/05/07 15:30:05;;;;;;;5.07;1.20;;;;;;;27.30;23.86;93138.78;6116763;23;20428;-85
2021/05/07 15:32:30;;;;;;;2.83;1.15;;;;;;;27.24;24.03;93123.34;6108968;23;20434;-82
2021/05/07 15:34:56;;;;;;;3.67;1.13;;;;;;;27.30;25.14;93140.72;6095403;23;20085;-88
2021/05/07 15:37:21;;;;;;;3.80;1.25;;;;;;;27.07;23.54;93136.75;6113727;23;20084;-83
2021/05/07 15:39:47;;;;;;;4.50;1.10;;;;;;;27.04;24.37;93148.41;6113428;23;20018;-83
2021/05/07 15:42:15;;;;;;;4.68;1.25;;;;;;;26.78;24.10;93135.53;6111590;23;20384;-84
2021/05/07 15:44:41;;;;;;;5.65;1.23;;;;;;;26.53;24.43;93152.13;6110383;23;20013;-84
2021/05/07 15:47:09;;;;;;;3.25;1.75;;;;;;;26.49;24.60;93150.59;6120140;23;20348;-83
2021/05/07 15:49:37;;;;;;;5.43;1.20;;;;;;;26.27;25.23;93134.59;6114759;23;20033;-83
2021/05/07 15:52:07;;;;;;;5.68;1.58;;;;;;;26.18;25.50;93147.06;6108328;23;20152;-83
2021/05/07 15:54:33;;;;;;;8.82;1.20;;;;;;;26.29;26.26;93129.53;6109037;23;20014;-84
2021/05/07 15:56:58;;;;;;;11.90;1.92;;;;;;;26.34;27.00;93122.91;6112789;23;20412;-82
2021/05/07 15:59:24;;;;;;;8.02;1.73;;;;;;;26.44;25.89;93142.94;6106251;23;20017;-82
2021/05/07 16:01:49;;;;;;;4.22;1.48;;;;;;;26.42;26.37;93123.59;6110252;23;20345;-82
2021/05/07 16:04:15;;;;;;;6.03;1.73;;;;;;;26.40;26.23;93142.19;6109704;23;20018;-80
2021/05/07 16:06:40;;;;;;;7.95;1.90;;;;;;;26.45;27.99;93139.03;6111815;23;20077;-81
2021/05/07 16:09:06;;;;;;;10.90;1.98;;;;;;;26.29;26.91;93137.66;6094432;23;20022;-81
2021/05/07 16:11:32;;;;;;;3.60;1.30;;;;;;;26.31;27.30;93145.38;6116191;23;20350;-81
2021/05/07 16:14:04;;;;;;;8.15;1.92;;;;;;;25.97;26.59;93131.78;6120406;23;20080;-85
2021/05/07 16:16:30;;;;;;;4.00;1.20;;;;;;;25.96;27.61;93141.06;6123219;23;20009;-83
2021/05/07 16:18:55;;;;;;;2.45;1.48;;;;;;;25.96;27.37;93138.34;6104597;23;20022;-81
2021/05/07 16:21:21;;;;;;;4.20;1.27;;;;;;;25.78;27.26;93141.22;6113879;23;20108;-85
2021/05/07 16:23:46;;;;;;;2.10;1.55;;;;;;;25.68;27.16;93147.50;6111544;23;20343;-83
2021/05/07 16:26:14;;;;;;;6.22;1.80;;;;;;;25.53;28.01;93147.97;6110919;23;20037;-89
2021/05/07 16:28:42;;;;;;;5.65;1.52;;;;;;;25.23;28.52;93149.31;6116879;23;20460;-87
2021/05/07 16:31:07;;;;;;;6.10;1.45;;;;;;;25.03;28.13;93135.53;6096354;23;20025;-87
2021/05/07 16:33:33;;;;;;;5.50;1.40;;;;;;;25.19;28.63;93137.75;6106957;23;20025;-87
2021/05/07 16:35:58;;;;;;;5.18;1.27;;;;;;;25.27;28.56;93120.31;6108956;23;20318;-87
2021/05/07 16:38:32;;;;;;;5.82;2.08;;;;;;;25.50;28.63;93140.66;6117043;23;20026;-90
2021/05/07 16:40:57;;;;;;;5.13;1.33;;;;;;;25.32;28.60;93140.75;6107934;23;20037;-83
2021/05/07 16:43:25;;;;;;;4.45;1.67;;;;;;;25.26;28.85;93153.94;6113403;23;20069;-88
2021/05/07 16:45:51;;;;;;;6.97;1.20;;;;;;;25.09;28.95;93148.63;6111641;23;20025;-86
2021/05/07 16:48:16;;;;;;;5.50;1.65;;;;;;;24.96;29.09;93141.00;6113276;23;20131;-84
2021/05/07 16:50:42;;;;;;;4.38;1.65;;;;;;;25.06;29.94;93150.22;6107982;23;20352;-86
2021/05/07 16:53:08;;;;;;;5.03;2.03;;;;;;;24.97;29.30;93158.72;6107226;23;20014;-87
2021/05/07 16:55:33;;;;;;;2.47;1.40;;;;;;;24.90;29.35;93141.78;6113258;23;20010;-88
2021/05/07 16:58:01;;;;;;;4.75;1.88;;;;;;;24.96;29.99;93162.63;6108947;23;20057;-84
2021/05/07 17:00:26;;;;;;;6.07;1.80;;;;;;;24.92;30.08;93153.72;6094852;23;20014;-88
2021/05/07 17:02:52;;;;;;;4.22;2.10;;;;;;;24.58;30.28;93153.47;6100690;23;20041;-86
2021/05/07 17:05:17;;;;;;;5.70;1.58;;;;;;;24.49;30.69;93147.72;6108462;23;20018;-85
2021/05/07 17:07:42;;;;;;;8.55;1.92;;;;;;;24.44;30.91;93161.63;6121455;23;20001;-87
2021/05/07 17:10:09;;;;;;;3.92;1.48;;;;;;;24.48;31.30;93164.31;6107273;23;20053;-85
2021/05/07 17:12:34;;;;;;;3.47;1.40;;;;;;;24.49;31.54;93166.63;6107055;23;20021;-86
2021/05/07 17:14:59;;;;;;;2.88;1.65;;;;;;;24.35;31.83;93161.25;6104396;23;20052;-85
2021/05/07 17:17:25;;;;;;;4.57;1.38;;;;;;;24.15;31.61;93169.00;6104873;23;20500;-85
2021/05/07 17:19:57;;;;;;;5.85;2.35;;;;;;;24.20;31.73;93170.56;6112464;23;20002;-88
2021/05/07 17:22:23;;;;;;;6.85;2.50;;;;;;;24.10;32.27;93171.31;6040538;23;20022;-87
2021/05/07 17:24:51;;;;;;;6.10;1.23;;;;;;;23.92;32.37;93173.25;6083770;23;20022;-84
2021/05/07 17:27:16;;;;;;;5.38;1.30;;;;;;;23.85;32.32;93170.59;6081271;23;20024;-85
2021/05/07 17:29:41;;;;;;;8.20;2.92;;;;;;;23.87;32.53;93168.25;6089546;23;20352;-86
2021/05/07 17:32:07;;;;;;;4.18;2.20;;;;;;;23.76;34.12;93176.34;6081663;23;20006;-86
2021/05/07 17:34:32;;;;;;;6.40;1.52;;;;;;;23.67;32.94;93171.34;6083459;23;20441;-86
2021/05/07 17:36:58;;;;;;;5.43;1.63;;;;;;;23.58;33.50;93176.34;6080485;23;20033;-86
2021/05/07 17:39:23;;;;;;;6.72;1.70;;;;;;;23.49;33.50;93186.75;6079628;23;20033;-88
2021/05/07 17:41:50;;;;;;;6.97;2.63;;;;;;;23.10;34.28;93183.97;6073192;23;20018;-85
2021/05/07 17:44:15;;;;;;;12.15;3.90;;;;;;;23.10;34.21;93185.88;6065016;23;20105;-87
2021/05/07 17:46:41;;;;;;;5.70;2.42;;;;;;;23.00;34.57;93181.25;6093486;23;20445;-88
2021/05/07 17:49:07;;;;;;;6.85;1.80;;;;;;;22.99;34.61;93187.78;6082142;23;20076;-87
2021/05/07 17:51:33;;;;;;;4.30;2.00;;;;;;;22.99;34.72;93174.31;6080654;23;20022;-87
2021/05/07 17:53:58;;;;;;;7.10;2.70;;;;;;;22.80;34.41;93178.88;6077708;23;20405;-86
2021/05/07 17:56:23;;;;;;;4.72;2.00;;;;;;;22.74;34.41;93175.00;6078088;23;20254;-89
2021/05/07 17:58:49;;;;;;;7.30;1.80;;;;;;;22.69;34.23;93188.78;6081813;23;20006;-89
2021/05/07 18:01:14;;;;;;;6.07;1.73;;;;;;;22.61;34.14;93192.63;6077993;23;20027;-89
2021/05/07 18:03:40;;;;;;;8.02;1.98;;;;;;;22.37;34.05;93188.66;6081544;23;20029;-81
2021/05/07 18:06:05;;;;;;;8.27;2.38;;;;;;;22.22;34.17;93186.25;6081212;23;20022;-83
2021/05/07 18:08:31;;;;;;;3.10;1.00;;;;;;;22.29;34.57;93208.59;6079924;23;20023;-90
2021/05/07 18:10:57;;;;;;;2.85;1.30;;;;;;;22.18;34.43;93188.16;6078630;23;20089;-85
2021/05/07 18:13:22;;;;;;;4.40;1.42;;;;;;;22.06;34.49;93189.22;6079929;23;20099;-81
2021/05/07 18:15:48;;;;;;;8.23;2.38;;;;;;;21.98;35.03;93187.66;6078357;23;20473;-85
2021/05/07 18:18:13;;;;;;;4.28;1.98;;;;;;;22.02;35.30;93197.28;6079076;23;20018;-89
2021/05/07 18:20:39;;;;;;;5.45;1.88;;;;;;;21.77;35.63;93182.84;6078127;23;20041;-85
2021/05/07 18:23:07;;;;;;;6.75;1.40;;;;;;;21.91;35.32;93188.34;6088737;23;20010;-88
2021/05/07 18:25:33;;;;;;;5.30;1.58;;;;;;;21.90;35.21;93199.44;6089462;23;20006;-86
2021/05/07 18:28:07;;;;;;;20.17;1.48;;;;;;;21.77;34.54;93185.53;6081127;23;20024;-84
2021/05/07 18:30:33;;;;;;;5.47;1.77;;;;;;;21.77;34.21;93201.69;6082281;23;20037;-87
2021/05/07 18:32:59;;;;;;;5.35;1.25;;;;;;;21.72;34.09;93210.09;6082767;23;20453;-85
2021/05/07 18:35:25;;;;;;;5.13;1.45;;;;;;;21.76;34.31;93216.25;6077722;23;20050;-87
2021/05/07 18:37:50;;;;;;;1.83;0.90;;;;;;;21.63;33.68;93187.34;6091323;23;20037;-88
2021/05/07 18:40:17;;;;;;;4.28;1.25;;;;;;;21.71;34.01;93213.91;6079785;23;20101;-84
2021/05/07 18:42:43;;;;;;;4.00;1.60;;;;;;;21.67;34.47;93210.44;6077081;23;20090;-82
2021/05/07 18:45:12;;;;;;;10.05;1.70;;;;;;;21.67;34.46;93213.13;6063233;23;20021;-87
2021/05/07 18:47:37;;;;;;;6.85;1.27;;;;;;;21.55;34.34;93208.03;6085804;23;20038;-83
2021/05/07 18:50:06;;;;;;;7.32;1.50;;;;;;;21.59;34.84;93214.97;6079092;23;20359;-86
2021/05/07 18:52:36;;;;;;;2.30;1.17;;;;;;;21.60;34.96;93200.38;6080263;23;20042;-83
2021/05/07 18:55:02;;;;;;;7.93;1.80;;;;;;;21.53;35.41;93215.69;6080065;23;20453;-85
2021/05/07 18:57:28;;;;;;;3.85;1.40;;;;;;;21.53;34.90;93216.47;6079136;23;20022;-86
2021/05/07 18:59:53;;;;;;;3.13;1.40;;;;;;;21.52;35.32;93203.38;6086395;23;20021;-87
2021/05/07 19:02:19;;;;;;;2.65;1.10;;;;;;;21.45;35.83;93204.06;6086728;23;20361;-87
2021/05/07 19:04:47;;;;;;;5.28;1.30;;;;;;;21.50;36.01;93211.81;6080794;23;20006;-85
2021/05/07 19:07:13;;;;;;;11.48;2.17;;;;;;;21.51;35.42;93213.34;6075828;23;20030;-89
2021/05/07 19:09:38;;;;;;;1.98;1.35;;;;;;;21.53;35.84;93204.94;6077996;23;20089;-86
2021/05/07 19:12:04;;;;;;;4.50;1.13;;;;;;;21.50;35.77;93208.38;6076677;23;20027;-81
2021/05/07 19:14:29;;;;;;;8.60;1.58;;;;;;;21.40;35.90;93209.03;6086682;23;20018;-85
2021/05/07 19:17:01;;;;;;;7.40;2.13;;;;;;;21.38;35.75;93208.63;6101847;23;20010;-85
2021/05/07 19:19:27;;;;;;;2.90;1.35;;;;;;;21.34;35.64;93218.59;6080579;23;20121;-84
2021/05/07 19:21:52;;;;;;;5.53;1.95;;;;;;;21.44;35.87;93207.16;6081737;23;20113;-89
2021/05/07 19:24:20;;;;;;;5.18;1.60;;;;;;;21.33;35.57;93201.69;6077133;23;20572;-85
2021/05/07 19:26:45;;;;;;;4.88;1.85;;;;;;;21.43;36.10;93227.13;6081148;23;20126;-85
2021/05/07 19:29:11;;;;;;;5.20;1.77;;;;;;;21.33;35.86;93211.66;6078448;23;20054;-85
2021/05/07 19:31:36;;;;;;;5.35;1.92;;;;;;;21.37;36.16;93218.59;6020744;23;20031;-83
2021/05/07 19:34:02;;;;;;;3.15;1.50;;;;;;;21.29;36.28;93211.63;6083072;23;20005;-85
2021/05/07 19:36:27;;;;;;;7.25;1.55;;;;;;;21.38;35.98;93227.44;6078338;23;20014;-84
2021/05/07 19:38:56;;;;;;;11.85;1.90;;;;;;;21.35;35.68;93222.81;6064435;23;20391;-88
2021/05/07 19:41:21;;;;;;;5.53;1.50;;;;;;;21.27;34.83;93213.13;6075821;23;20157;-89
2021/05/07 19:43:47;;;;;;;2.35;1.40;;;;;;;21.24;34.54;93208.50;6075277;23;20384;-87
2021/05/07 19:46:18;;;;;;;7.22;1.95;;;;;;;21.25;34.11;93201.97;6092470;23;20049;-88
2021/05/07 19:48:57;;;;;;;;;;;;;;;;;;;;;
2021/05/07 19:54:28;;;;;;;;;;;;;;;21.45;33.54;93230.22;5910189;24;20428;-83
2021/05/07 19:56:56;;;;;;;3.65;1.33;;;;;;;21.25;33.92;93197.38;5908345;24;20131;-88
2021/05/07 19:59:21;;;;;;;2.42;1.30;;;;;;;21.45;34.12;93228.28;5978015;23;20011;-86
2021/05/07 20:01:50;;;;;;;2.15;1.20;;;;;;;21.40;34.47;93234.00;6078008;23;20089;-85
2021/05/07 20:04:15;;;;;;;4.65;1.40;;;;;;;21.39;34.82;93231.69;6076260;23;20095;-90
2021/05/07 20:06:41;;;;;;;6.90;1.40;;;;;;;21.27;34.58;93234.63;6076118;23;20784;-82
2021/05/07 20:09:07;;;;;;;1.25;0.90;;;;;;;21.26;34.82;93212.34;6076281;23;20444;-86
2021/05/07 20:11:32;;;;;;;3.47;1.38;;;;;;;21.24;34.53;93228.09;6074765;23;20133;-89
2021/05/07 20:13:58;;;;;;;7.82;1.13;;;;;;;21.35;34.70;93233.56;6084597;23;20089;-83
2021/05/07 20:16:26;;;;;;;7.45;1.52;;;;;;;21.32;33.89;93220.84;6078929;23;20038;-88
2021/05/07 20:18:56;;;;;;;6.35;1.77;;;;;;;21.39;33.93;93226.31;6077508;23;20033;-87
2021/05/07 20:21:21;;;;;;;6.03;1.30;;;;;;;21.35;34.37;93230.88;6073342;23;20342;-82
2021/05/07 20:23:56;;;;;;;4.72;1.60;;;;;;;21.42;34.63;93231.72;6029568;23;20098;-84
2021/05/07 20:30:32;;;;;;;;;;;;;;;;;;;;;
2021/05/07 20:33:07;;;;;;;6.90;1.30;;;;;;;21.29;35.50;93246.56;5874367;24;20054;-87
2021/05/07 20:36:04;;;;;;;;;;;;;;;;;;;;;
2021/05/07 20:39:15;;;;;;;;;;;;;;;;;;;;;
2021/05/07 20:41:40;;;;;;;4.25;1.40;;;;;;;21.07;36.87;93231.31;5898050;24;20021;-86
2021/05/07 20:44:33;;;;;;;;;;;;;;;;;;;;;
2021/05/07 20:47:08;;;;;;;3.20;1.63;;;;;;;20.92;37.16;93235.75;5851719;24;20468;-88
2021/05/07 20:49:37;;;;;;;5.85;2.13;;;;;;;21.04;37.44;93238.19;5880948;24;20149;-85
2021/05/07 20:52:02;;;;;;;5.55;2.22;;;;;;;21.04;37.06;93248.94;5934299;24;20059;-86
2021/05/07 20:54:28;;;;;;;3.67;1.30;;;;;;;21.18;37.15;93267.94;6078971;23;20114;-85
2021/05/07 20:56:56;;;;;;;6.18;1.10;;;;;;;21.07;37.33;93252.81;6084269;23;20023;-87
2021/05/07 20:59:21;;;;;;;4.88;1.75;;;;;;;21.09;36.73;93278.19;6065634;23;20022;-86
2021/05/07 21:01:47;;;;;;;5.10;1.40;;;;;;;21.17;36.44;93279.03;6064866;23;20646;-84
2021/05/07 21:04:12;;;;;;;6.97;1.23;;;;;;;21.22;36.16;93281.41;6093597;23;20014;-87
2021/05/07 21:06:38;;;;;;;4.10;1.65;;;;;;;21.21;36.21;93271.03;6077900;23;20015;-87
2021/05/07 21:09:05;;;;;;;4.70;1.27;;;;;;;21.14;36.20;93261.75;6079872;23;20431;-87
2021/05/07 21:11:31;;;;;;;4.07;1.63;;;;;;;21.21;36.00;93269.09;6081698;23;20081;-86
2021/05/07 21:13:57;;;;;;;4.53;1.73;;;;;;;20.99;36.33;93243.91;6064090;23;20022;-87
2021/05/07 21:16:23;;;;;;;3.03;1.25;;;;;;;21.00;36.64;93245.47;6083345;23;20014;-87
2021/05/07 21:18:49;;;;;;;4.53;1.45;;;;;;;20.95;36.66;93255.75;6080677;23;20067;-87
2021/05/07 21:21:15;;;;;;;4.53;1.42;;;;;;;20.88;37.01;93244.91;6083937;23;20031;-86
2021/05/07 21:23:40;;;;;;;2.85;1.63;;;;;;;21.12;37.09;93285.50;6085416;23;20550;-86
2021/05/07 21:26:06;;;;;;;3.70;1.08;;;;;;;21.02;36.99;93277.31;6079543;23;20014;-84
2021/05/07 21:28:31;;;;;;;5.65;1.55;;;;;;;21.12;36.76;93272.06;6091619;23;20053;-87
2021/05/07 21:30:57;;;;;;;3.92;1.70;;;;;;;21.08;37.09;93268.56;6094866;23;19998;-87
2021/05/07 21:33:22;;;;;;;5.20;1.25;;;;;;;21.09;37.28;93278.19;6079900;23;20019;-85
2021/05/07 21:35:47;;;;;;;11.45;1.80;;;;;;;21.09;37.50;93272.81;6080663;23;20022;-88
2021/05/07 21:38:13;;;;;;;2.83;1.20;;;;;;;21.00;37.81;93269.63;6085526;23;20022;-87
2021/05/07 21:40:41;;;;;;;6.82;2.42;;;;;;;21.07;37.79;93280.44;6081667;23;20037;-88
2021/05/07 21:43:06;;;;;;;3.58;1.40;;;;;;;21.05;37.74;93282.75;6083104;23;20389;-86
2021/05/07 21:45:32;;;;;;;4.65;1.60;;;;;;;21.02;37.81;93288.03;6081553;23;20325;-89
2021/05/07 21:47:58;;;;;;;7.43;1.55;;;;;;;21.00;38.08;93285.75;6081114;23;20141;-86
2021/05/07 21:50:26;;;;;;;8.98;2.47;;;;;;;21.03;37.90;93293.06;6085867;23;20129;-90
2021/05/07 21:52:51;;;;;;;5.28;1.40;;;;;;;21.08;38.26;93300.03;6078448;23;20369;-88
2021/05/07 21:55:19;;;;;;;3.35;1.23;;;;;;;20.98;38.13;93292.59;6089941;23;20007;-87
2021/05/07 21:57:51;;;;;;;4.50;1.40;;;;;;;20.82;38.17;93276.69;6080562;23;20029;-87
2021/05/07 22:00:17;;;;;;;4.60;1.30;;;;;;;20.73;38.12;93265.44;6079028;23;20018;-87
2021/05/07 22:02:42;;;;;;;4.95;1.30;;;;;;;20.97;37.96;93309.84;6079161;23;20014;-83
2021/05/07 22:05:09;;;;;;;5.30;2.03;;;;;;;20.95;38.47;93320.22;6080594;23;20022;-89
2021/05/07 22:07:35;;;;;;;5.30;2.20;;;;;;;20.88;38.60;93309.38;6078421;23;20011;-89
2021/05/07 22:10:00;;;;;;;4.85;1.58;;;;;;;20.88;38.75;93320.88;6093620;23;20007;-88
2021/05/07 22:12:26;;;;;;;2.72;1.70;;;;;;;20.82;39.29;93327.69;6076297;23;20042;-81
2021/05/07 22:14:51;;;;;;;7.90;1.80;;;;;;;20.79;39.19;93317.69;6080220;23;20034;-87
2021/05/07 22:17:17;;;;;;;2.30;1.40;;;;;;;20.76;39.27;93321.13;6078441;23;20093;-86
2021/05/07 22:19:42;;;;;;;3.00;1.38;;;;;;;20.74;39.32;93307.28;6080745;23;20093;-87
2021/05/07 22:22:07;;;;;;;5.80;1.63;;;;;;;20.74;39.05;93321.47;6094692;23;20021;-87
2021/05/07 22:24:33;;;;;;;4.82;1.73;;;;;;;20.68;39.43;93306.03;6083842;23;20007;-89
2021/05/07 22:26:58;;;;;;;6.63;1.42;;;;;;;20.68;39.57;93306.81;6086300;23;20018;-83
2021/05/07 22:29:24;;;;;;;4.13;1.75;;;;;;;20.68;40.02;93311.41;6089400;23;20014;-87
2021/05/07 22:31:49;;;;;;;4.28;1.70;;;;;;;20.57;39.92;93326.59;6090816;23;20026;-88
2021/05/07 22:34:17;;;;;;;2.97;1.42;;;;;;;20.53;40.13;93306.97;6096435;23;20011;-85
2021/05/07 22:36:42;;;;;;;4.13;1.67;;;;;;;20.54;40.89;93327.31;6082887;23;20338;-89
2021/05/07 22:39:08;;;;;;;8.77;3.03;;;;;;;20.28;41.60;93314.66;6108932;23;20110;-89
2021/05/07 22:41:33;;;;;;;10.88;2.70;;;;;;;19.97;42.79;93341.72;6088254;23;20018;-89
2021/05/07 22:43:59;;;;;;;9.98;2.38;;;;;;;19.86;43.27;93341.53;6082197;23;20015;-88
2021/05/07 22:46:25;;;;;;;8.10;3.17;;;;;;;19.37;44.10;93330.66;6084891;23;20049;-90
2021/05/07 22:48:50;;;;;;;6.40;2.38;;;;;;;19.38;44.31;93316.16;6084450;23;20022;-89
2021/05/07 22:51:16;;;;;;;6.60;2.58;;;;;;;19.26;44.19;93319.75;6082634;23;20046;-89
2021/05/07 22:53:41;;;;;;;11.05;2.53;;;;;;;19.29;44.92;93343.16;6082910;23;20026;-89
2021/05/07 22:56:06;;;;;;;4.20;2.20;;;;;;;19.12;45.23;93343.56;6079350;23;20464;-89
2021/05/07 22:58:35;;;;;;;11.02;2.55;;;;;;;18.97;45.94;93355.13;6082764;23;20425;-89
2021/05/07 23:01:00;;;;;;;8.68;2.38;;;;;;;18.87;46.18;93345.72;6087133;23;20434;-89
2021/05/07 23:03:26;;;;;;;12.48;3.20;;;;;;;18.88;46.54;93335.81;6081137;23;20018;-89
2021/05/07 23:05:51;;;;;;;7.72;2.72;;;;;;;18.75;46.67;93321.00;6066680;23;20475;-87
2021/05/07 23:08:16;;;;;;;7.85;2.67;;;;;;;18.70;47.63;93337.34;6084045;23;20022;-89
2021/05/07 23:10:42;;;;;;;7.93;2.60;;;;;;;18.55;46.88;93331.69;6094036;23;20255;-88
2021/05/07 23:13:07;;;;;;;9.98;2.55;;;;;;;18.44;47.14;93319.16;6083185;23;20025;-89
2021/05/07 23:15:33;;;;;;;7.13;2.65;;;;;;;18.38;47.49;93315.19;6079850;23;20018;-89
2021/05/07 23:17:58;;;;;;;9.98;3.08;;;;;;;18.19;47.89;93302.53;6082156;23;20024;-89
2021/05/07 23:20:24;;;;;;;7.28;2.65;;;;;;;18.33;47.71;93344.88;6083071;23;20018;-89
2021/05/07 23:22:49;;;;;;;9.50;3.05;;;;;;;18.31;47.89;93352.50;6079343;23;20099;-89
2021/05/07 23:25:15;;;;;;;9.48;3.50;;;;;;;18.15;48.74;93339.13;6086085;23;20002;-87
2021/05/07 23:27:41;;;;;;;10.73;3.28;;;;;;;18.25;48.57;93354.66;6082886;23;20021;-90
2021/05/07 23:30:10;;;;;;;10.13;2.17;;;;;;;18.32;48.97;93368.19;6086608;23;20022;-89
2021/05/07 23:32:35;;;;;;;8.30;2.95;;;;;;;18.31;48.77;93372.00;6081567;23;20520;-89
2021/05/07 23:35:04;;;;;;;9.77;2.30;;;;;;;18.32;49.31;93378.13;6091144;23;20018;-88
2021/05/07 23:37:31;;;;;;;6.78;2.50;;;;;;;18.06;49.42;93354.56;6082959;23;20441;-89
2021/05/07 23:39:56;;;;;;;12.95;3.20;;;;;;;18.09;49.73;93360.00;6087323;23;20002;-90
2021/05/07 23:42:22;;;;;;;6.10;2.83;;;;;;;17.99;50.12;93368.53;6080082;23;20025;-90
2021/05/07 23:44:47;;;;;;;10.35;2.72;;;;;;;17.99;50.12;93370.44;6088300;23;20021;-91
2021/05/07 23:47:13;;;;;;;15.90;2.78;;;;;;;17.99;50.13;93371.19;6089354;23;20358;-89
2021/05/07 23:49:42;;;;;;;11.00;2.13;;;;;;;17.96;50.43;93381.81;6082558;23;20065;-89
2021/05/07 23:52:09;;;;;;;5.95;2.70;;;;;;;17.92;51.02;93383.63;6082591;23;20396;-89
2021/05/07 23:54:35;;;;;;;18.63;2.75;;;;;;;17.88;51.11;93396.13;6080228;23;20018;-89
2021/05/07 23:57:00;;;;;;;7.40;2.40;;;;;;;17.66;51.32;93366.19;6081191;23;20101;-88
2021/05/07 23:59:26;;;;;;;5.18;2.33;;;;;;;17.73;51.40;93389.66;6107243;23;20040;-90
